MET'MAP v2.0
soon released !

Expected late october,
this new version will be
more efficient, smarter,
and hosted on a brand new
server x3 powerfull...
...and still free !


Not compatible ?
Try the mobile version !

LOG IN : | Subscribe | Disclaimer | Who is Orbifly ? |
ICAO code :

TAF - DTTR El Borma - 25 Feb 2020 01:59 UTC - Data Source NOAA   


- Airport Elevation : 827 ft
- IATA code : EBM
- No reported NOTAMs.


DTTR - El Borma

Latest METAR recorded : 2015/08/11 08:00 DTTR 110800Z 04004KT 9999 SCT026 34/15 Q1014
TAF TAF DTTR
Valid from the 24 at 22:00 until the 25 at 07:00 UTC


242100Z 2422/2507 29005KT CAVOK

Source NOAA


MET'MAP, your aeronautical weather chart ! - Copyright ORBIFLY December 2007

Programming & Development : Alexandra Zaïnal
Co-Developer : Marc-Olivier Méhu
Technical & hardware support : Manuel Goepfert
Concept & Financing : Baudouin d'Aumeries